Terminal Aerodrome Forecast
Issued by NWS

Home | Current Version | Previous Version | Graphics & Text | Print | Product List | Glossary On
Versions: 1 2 3 4 5 6 7 8 9 10 11 12 13 14 15 16 17 18 19 20 21 22 23 24 25 26 27 28 29 30 31 32 33 34 35
000
FTUS43 KGRB 302300
TAFRHI
TAF
KRHI 302333Z 3100/3124 21004KT P6SM SCT040 OVC080
     FM310500 23004KT P6SM SCT018 OVC040
      TEMPO 3106/3110 5SM -SN BKN018
     FM311000 25004KT P6SM OVC018
     FM311400 34006KT P6SM BKN020 OVC060=

USA.gov is the U.S. government's official web portal to all federal, state and local government web resources and services.